sensor_id;sensor_type;location;lat;lon;timestamp;P1;durP1;ratioP1;P2;durP2;ratioP2
70780;SDS011;59514;48.810;2.134;2023-05-23T00:01:32;13.32;;;9.90;;
70780;SDS011;59514;48.810;2.134;2023-05-23T00:04:01;13.52;;;9.32;;
70780;SDS011;59514;48.810;2.134;2023-05-23T00:06:26;15.98;;;10.10;;
70780;SDS011;59514;48.810;2.134;2023-05-23T00:08:52;16.67;;;8.85;;
70780;SDS011;59514;48.810;2.134;2023-05-23T00:11:17;12.88;;;9.02;;
70780;SDS011;59514;48.810;2.134;2023-05-23T00:13:44;14.88;;;9.98;;
70780;SDS011;59514;48.810;2.134;2023-05-23T00:16:09;13.43;;;8.98;;
70780;SDS011;59514;48.810;2.134;2023-05-23T00:18:40;12.40;;;8.27;;
70780;SDS011;59514;48.810;2.134;2023-05-23T00:23:33;14.48;;;9.30;;
70780;SDS011;59514;48.810;2.134;2023-05-23T00:25:59;12.77;;;8.38;;
70780;SDS011;59514;48.810;2.134;2023-05-23T00:28:24;12.95;;;8.68;;
70780;SDS011;59514;48.810;2.134;2023-05-23T00:30:50;12.07;;;8.90;;
70780;SDS011;59514;48.810;2.134;2023-05-23T00:33:16;16.40;;;8.75;;
70780;SDS011;59514;48.810;2.134;2023-05-23T00:35:41;12.85;;;8.30;;
70780;SDS011;59514;48.810;2.134;2023-05-23T00:38:07;11.52;;;8.95;;
70780;SDS011;59514;48.810;2.134;2023-05-23T00:40:33;14.63;;;8.93;;
70780;SDS011;59514;48.810;2.134;2023-05-23T00:42:59;16.27;;;8.63;;
70780;SDS011;59514;48.810;2.134;2023-05-23T00:45:24;14.15;;;10.23;;
70780;SDS011;59514;48.810;2.134;2023-05-23T00:47:50;12.05;;;9.07;;
70780;SDS011;59514;48.810;2.134;2023-05-23T00:50:16;10.07;;;8.45;;
70780;SDS011;59514;48.810;2.134;2023-05-23T00:52:43;13.27;;;8.82;;
70780;SDS011;59514;48.810;2.134;2023-05-23T00:55:09;11.68;;;9.52;;
70780;SDS011;59514;48.810;2.134;2023-05-23T00:57:36;11.60;;;9.05;;
70780;SDS011;59514;48.810;2.134;2023-05-23T01:00:14;14.38;;;9.90;;
70780;SDS011;59514;48.810;2.134;2023-05-23T01:02:44;10.75;;;8.27;;
70780;SDS011;59514;48.810;2.134;2023-05-23T01:05:14;12.15;;;8.85;;
70780;SDS011;59514;48.810;2.134;2023-05-23T01:07:41;11.27;;;9.23;;
70780;SDS011;59514;48.810;2.134;2023-05-23T01:10:13;12.63;;;9.35;;
70780;SDS011;59514;48.810;2.134;2023-05-23T01:12:58;10.30;;;8.35;;
70780;SDS011;59514;48.810;2.134;2023-05-23T01:18:16;12.48;;;9.65;;
70780;SDS011;59514;48.810;2.134;2023-05-23T01:26:16;13.18;;;9.77;;
70780;SDS011;59514;48.810;2.134;2023-05-23T01:28:54;13.65;;;9.32;;
70780;SDS011;59514;48.810;2.134;2023-05-23T01:31:24;13.02;;;10.55;;
70780;SDS011;59514;48.810;2.134;2023-05-23T01:33:53;11.80;;;9.55;;
70780;SDS011;59514;48.810;2.134;2023-05-23T01:36:19;15.07;;;10.18;;
70780;SDS011;59514;48.810;2.134;2023-05-23T01:38:45;12.77;;;10.38;;
70780;SDS011;59514;48.810;2.134;2023-05-23T01:41:10;15.15;;;10.80;;
70780;SDS011;59514;48.810;2.134;2023-05-23T01:43:35;13.02;;;10.80;;
70780;SDS011;59514;48.810;2.134;2023-05-23T01:46:01;11.57;;;9.63;;
70780;SDS011;59514;48.810;2.134;2023-05-23T01:48:28;15.20;;;10.77;;
70780;SDS011;59514;48.810;2.134;2023-05-23T01:50:55;12.90;;;10.30;;
70780;SDS011;59514;48.810;2.134;2023-05-23T01:53:21;10.90;;;9.80;;
70780;SDS011;59514;48.810;2.134;2023-05-23T01:55:48;13.60;;;11.15;;
70780;SDS011;59514;48.810;2.134;2023-05-23T01:58:14;10.95;;;9.85;;
70780;SDS011;59514;48.810;2.134;2023-05-23T02:00:40;15.35;;;12.18;;
70780;SDS011;59514;48.810;2.134;2023-05-23T02:03:06;11.55;;;10.40;;
70780;SDS011;59514;48.810;2.134;2023-05-23T02:05:31;13.77;;;10.95;;
70780;SDS011;59514;48.810;2.134;2023-05-23T02:07:56;11.32;;;9.05;;
70780;SDS011;59514;48.810;2.134;2023-05-23T02:10:22;11.05;;;9.45;;
70780;SDS011;59514;48.810;2.134;2023-05-23T02:12:47;11.43;;;9.18;;
70780;SDS011;59514;48.810;2.134;2023-05-23T02:15:12;11.80;;;9.52;;
70780;SDS011;59514;48.810;2.134;2023-05-23T02:17:38;14.10;;;11.38;;
70780;SDS011;59514;48.810;2.134;2023-05-23T02:20:05;13.82;;;11.68;;
70780;SDS011;59514;48.810;2.134;2023-05-23T02:22:31;14.68;;;12.25;;
70780;SDS011;59514;48.810;2.134;2023-05-23T02:24:57;15.23;;;12.95;;
70780;SDS011;59514;48.810;2.134;2023-05-23T02:27:22;17.77;;;12.73;;
70780;SDS011;59514;48.810;2.134;2023-05-23T02:29:47;17.20;;;12.52;;
70780;SDS011;59514;48.810;2.134;2023-05-23T02:32:12;15.55;;;12.57;;
70780;SDS011;59514;48.810;2.134;2023-05-23T02:34:38;14.55;;;12.45;;
70780;SDS011;59514;48.810;2.134;2023-05-23T02:37:04;14.35;;;12.70;;
70780;SDS011;59514;48.810;2.134;2023-05-23T02:39:29;17.40;;;13.60;;
70780;SDS011;59514;48.810;2.134;2023-05-23T02:41:55;16.33;;;12.93;;
70780;SDS011;59514;48.810;2.134;2023-05-23T02:44:20;14.73;;;13.13;;
70780;SDS011;59514;48.810;2.134;2023-05-23T02:46:45;16.63;;;13.32;;
70780;SDS011;59514;48.810;2.134;2023-05-23T02:49:11;16.90;;;12.88;;
70780;SDS011;59514;48.810;2.134;2023-05-23T02:51:36;16.77;;;11.95;;
70780;SDS011;59514;48.810;2.134;2023-05-23T02:54:01;15.48;;;12.23;;
70780;SDS011;59514;48.810;2.134;2023-05-23T02:56:27;16.55;;;12.55;;
70780;SDS011;59514;48.810;2.134;2023-05-23T02:58:52;14.90;;;12.43;;
70780;SDS011;59514;48.810;2.134;2023-05-23T03:01:17;13.07;;;11.18;;
70780;SDS011;59514;48.810;2.134;2023-05-23T03:03:43;15.50;;;10.90;;
70780;SDS011;59514;48.810;2.134;2023-05-23T03:06:09;16.10;;;11.45;;
70780;SDS011;59514;48.810;2.134;2023-05-23T03:08:38;12.10;;;10.13;;
70780;SDS011;59514;48.810;2.134;2023-05-23T03:11:03;15.68;;;11.18;;
70780;SDS011;59514;48.810;2.134;2023-05-23T03:13:29;15.35;;;11.70;;
70780;SDS011;59514;48.810;2.134;2023-05-23T03:15:55;15.13;;;11.75;;
70780;SDS011;59514;48.810;2.134;2023-05-23T03:18:20;15.50;;;12.30;;
70780;SDS011;59514;48.810;2.134;2023-05-23T03:20:45;19.40;;;12.63;;
70780;SDS011;59514;48.810;2.134;2023-05-23T03:23:10;16.75;;;12.02;;
70780;SDS011;59514;48.810;2.134;2023-05-23T03:25:36;17.95;;;13.00;;
70780;SDS011;59514;48.810;2.134;2023-05-23T03:28:01;17.83;;;13.35;;
70780;SDS011;59514;48.810;2.134;2023-05-23T03:30:26;17.95;;;13.85;;
70780;SDS011;59514;48.810;2.134;2023-05-23T03:32:52;17.48;;;13.85;;
70780;SDS011;59514;48.810;2.134;2023-05-23T03:35:17;17.85;;;12.73;;
70780;SDS011;59514;48.810;2.134;2023-05-23T03:37:43;12.45;;;11.20;;
70780;SDS011;59514;48.810;2.134;2023-05-23T03:40:08;15.57;;;12.68;;
70780;SDS011;59514;48.810;2.134;2023-05-23T03:42:35;14.85;;;11.80;;
70780;SDS011;59514;48.810;2.134;2023-05-23T03:45:00;14.77;;;12.60;;
70780;SDS011;59514;48.810;2.134;2023-05-23T03:47:26;16.58;;;13.75;;
70780;SDS011;59514;48.810;2.134;2023-05-23T03:49:51;17.65;;;12.60;;
70780;SDS011;59514;48.810;2.134;2023-05-23T03:52:16;18.40;;;14.05;;
70780;SDS011;59514;48.810;2.134;2023-05-23T03:54:42;17.50;;;13.02;;
70780;SDS011;59514;48.810;2.134;2023-05-23T03:57:07;19.83;;;15.13;;
70780;SDS011;59514;48.810;2.134;2023-05-23T03:59:33;20.55;;;14.52;;
70780;SDS011;59514;48.810;2.134;2023-05-23T04:01:59;27.20;;;16.98;;
70780;SDS011;59514;48.810;2.134;2023-05-23T04:04:25;23.23;;;16.20;;
70780;SDS011;59514;48.810;2.134;2023-05-23T04:06:51;22.23;;;15.82;;
70780;SDS011;59514;48.810;2.134;2023-05-23T04:09:16;22.23;;;15.55;;
70780;SDS011;59514;48.810;2.134;2023-05-23T04:11:42;20.30;;;16.27;;
70780;SDS011;59514;48.810;2.134;2023-05-23T04:14:07;26.88;;;15.70;;
70780;SDS011;59514;48.810;2.134;2023-05-23T04:16:33;18.92;;;13.50;;
70780;SDS011;59514;48.810;2.134;2023-05-23T04:19:00;17.05;;;13.23;;
70780;SDS011;59514;48.810;2.134;2023-05-23T04:21:26;21.40;;;13.77;;
70780;SDS011;59514;48.810;2.134;2023-05-23T04:23:51;15.63;;;12.98;;
70780;SDS011;59514;48.810;2.134;2023-05-23T04:26:17;21.20;;;13.50;;
70780;SDS011;59514;48.810;2.134;2023-05-23T04:28:42;16.45;;;11.85;;
70780;SDS011;59514;48.810;2.134;2023-05-23T04:31:10;16.08;;;12.38;;
70780;SDS011;59514;48.810;2.134;2023-05-23T04:33:36;15.63;;;10.95;;
70780;SDS011;59514;48.810;2.134;2023-05-23T04:36:01;18.80;;;12.88;;
70780;SDS011;59514;48.810;2.134;2023-05-23T04:38:27;17.13;;;12.63;;
70780;SDS011;59514;48.810;2.134;2023-05-23T04:40:52;18.02;;;13.35;;
70780;SDS011;59514;48.810;2.134;2023-05-23T04:43:18;18.95;;;12.27;;
70780;SDS011;59514;48.810;2.134;2023-05-23T04:45:44;17.98;;;12.27;;
70780;SDS011;59514;48.810;2.134;2023-05-23T04:48:10;15.35;;;11.48;;
70780;SDS011;59514;48.810;2.134;2023-05-23T04:50:37;18.48;;;11.02;;
70780;SDS011;59514;48.810;2.134;2023-05-23T04:53:04;16.73;;;10.93;;
70780;SDS011;59514;48.810;2.134;2023-05-23T04:55:30;14.32;;;10.50;;
70780;SDS011;59514;48.810;2.134;2023-05-23T04:57:56;13.85;;;10.60;;
70780;SDS011;59514;48.810;2.134;2023-05-23T05:00:21;14.35;;;10.77;;
70780;SDS011;59514;48.810;2.134;2023-05-23T05:02:47;17.20;;;11.57;;
70780;SDS011;59514;48.810;2.134;2023-05-23T05:05:12;14.15;;;10.95;;
70780;SDS011;59514;48.810;2.134;2023-05-23T05:07:38;15.98;;;10.77;;
70780;SDS011;59514;48.810;2.134;2023-05-23T05:10:04;18.13;;;10.82;;
70780;SDS011;59514;48.810;2.134;2023-05-23T05:12:30;14.38;;;10.05;;
70780;SDS011;59514;48.810;2.134;2023-05-23T05:14:55;14.95;;;10.10;;
70780;SDS011;59514;48.810;2.134;2023-05-23T05:17:21;12.23;;;9.13;;
70780;SDS011;59514;48.810;2.134;2023-05-23T05:19:46;13.20;;;9.27;;
70780;SDS011;59514;48.810;2.134;2023-05-23T05:22:11;11.70;;;8.82;;
70780;SDS011;59514;48.810;2.134;2023-05-23T05:24:37;9.80;;;8.13;;
70780;SDS011;59514;48.810;2.134;2023-05-23T05:27:04;10.90;;;8.35;;
70780;SDS011;59514;48.810;2.134;2023-05-23T05:29:29;10.80;;;8.85;;
70780;SDS011;59514;48.810;2.134;2023-05-23T05:31:55;10.30;;;8.65;;
70780;SDS011;59514;48.810;2.134;2023-05-23T05:34:20;10.25;;;8.50;;
70780;SDS011;59514;48.810;2.134;2023-05-23T05:36:46;9.15;;;8.20;;
70780;SDS011;59514;48.810;2.134;2023-05-23T05:39:12;12.18;;;8.68;;
70780;SDS011;59514;48.810;2.134;2023-05-23T05:41:38;9.77;;;7.63;;
70780;SDS011;59514;48.810;2.134;2023-05-23T05:44:04;10.07;;;8.35;;
70780;SDS011;59514;48.810;2.134;2023-05-23T05:46:30;9.35;;;7.90;;
70780;SDS011;59514;48.810;2.134;2023-05-23T05:48:55;8.13;;;7.20;;
70780;SDS011;59514;48.810;2.134;2023-05-23T05:51:20;9.88;;;7.03;;
70780;SDS011;59514;48.810;2.134;2023-05-23T05:53:46;8.90;;;6.68;;
70780;SDS011;59514;48.810;2.134;2023-05-23T05:56:13;7.82;;;6.80;;
70780;SDS011;59514;48.810;2.134;2023-05-23T05:58:38;9.88;;;7.45;;
70780;SDS011;59514;48.810;2.134;2023-05-23T06:01:04;7.38;;;6.50;;
70780;SDS011;59514;48.810;2.134;2023-05-23T06:03:29;8.52;;;7.72;;
70780;SDS011;59514;48.810;2.134;2023-05-23T06:05:55;7.93;;;7.15;;
70780;SDS011;59514;48.810;2.134;2023-05-23T06:08:21;8.55;;;7.65;;
70780;SDS011;59514;48.810;2.134;2023-05-23T06:10:46;8.57;;;7.72;;
70780;SDS011;59514;48.810;2.134;2023-05-23T06:13:12;9.50;;;7.18;;
70780;SDS011;59514;48.810;2.134;2023-05-23T06:15:37;9.07;;;7.57;;
70780;SDS011;59514;48.810;2.134;2023-05-23T06:18:03;8.32;;;7.18;;
70780;SDS011;59514;48.810;2.134;2023-05-23T06:20:28;8.43;;;7.53;;
70780;SDS011;59514;48.810;2.134;2023-05-23T06:22:53;9.18;;;7.82;;
70780;SDS011;59514;48.810;2.134;2023-05-23T06:25:19;10.27;;;7.45;;
70780;SDS011;59514;48.810;2.134;2023-05-23T06:27:44;7.93;;;7.07;;
70780;SDS011;59514;48.810;2.134;2023-05-23T06:30:10;9.25;;;7.95;;
70780;SDS011;59514;48.810;2.134;2023-05-23T06:32:36;10.05;;;7.75;;
70780;SDS011;59514;48.810;2.134;2023-05-23T06:35:02;9.57;;;7.13;;
70780;SDS011;59514;48.810;2.134;2023-05-23T06:37:27;9.85;;;7.75;;
70780;SDS011;59514;48.810;2.134;2023-05-23T06:39:52;9.00;;;7.15;;
70780;SDS011;59514;48.810;2.134;2023-05-23T06:42:18;8.23;;;7.25;;
70780;SDS011;59514;48.810;2.134;2023-05-23T06:44:43;8.70;;;7.70;;
70780;SDS011;59514;48.810;2.134;2023-05-23T06:47:08;8.70;;;7.80;;
70780;SDS011;59514;48.810;2.134;2023-05-23T06:49:34;9.85;;;7.85;;
70780;SDS011;59514;48.810;2.134;2023-05-23T06:51:59;9.48;;;8.20;;
70780;SDS011;59514;48.810;2.134;2023-05-23T06:54:24;12.35;;;9.07;;
70780;SDS011;59514;48.810;2.134;2023-05-23T06:56:50;10.93;;;9.10;;
70780;SDS011;59514;48.810;2.134;2023-05-23T06:59:15;10.20;;;9.13;;
70780;SDS011;59514;48.810;2.134;2023-05-23T07:01:40;11.63;;;8.85;;
70780;SDS011;59514;48.810;2.134;2023-05-23T07:04:06;11.32;;;8.63;;
70780;SDS011;59514;48.810;2.134;2023-05-23T07:06:31;11.07;;;9.15;;
70780;SDS011;59514;48.810;2.134;2023-05-23T07:08:56;11.55;;;8.70;;
70780;SDS011;59514;48.810;2.134;2023-05-23T07:11:22;9.43;;;8.38;;
70780;SDS011;59514;48.810;2.134;2023-05-23T07:13:47;10.43;;;8.43;;
70780;SDS011;59514;48.810;2.134;2023-05-23T07:16:12;13.25;;;10.63;;
70780;SDS011;59514;48.810;2.134;2023-05-23T07:18:38;11.60;;;9.10;;
70780;SDS011;59514;48.810;2.134;2023-05-23T07:21:03;12.65;;;10.02;;
70780;SDS011;59514;48.810;2.134;2023-05-23T07:23:31;10.07;;;8.98;;
70780;SDS011;59514;48.810;2.134;2023-05-23T07:25:58;12.18;;;10.20;;
70780;SDS011;59514;48.810;2.134;2023-05-23T07:28:23;14.35;;;10.00;;
70780;SDS011;59514;48.810;2.134;2023-05-23T07:30:49;11.27;;;9.38;;
70780;SDS011;59514;48.810;2.134;2023-05-23T07:33:14;11.68;;;9.63;;
70780;SDS011;59514;48.810;2.134;2023-05-23T07:35:40;11.63;;;9.38;;
70780;SDS011;59514;48.810;2.134;2023-05-23T07:38:05;10.52;;;9.00;;
70780;SDS011;59514;48.810;2.134;2023-05-23T07:40:31;11.02;;;8.95;;
70780;SDS011;59514;48.810;2.134;2023-05-23T07:42:56;12.82;;;9.63;;
70780;SDS011;59514;48.810;2.134;2023-05-23T07:45:21;12.35;;;9.57;;
70780;SDS011;59514;48.810;2.134;2023-05-23T07:47:47;13.45;;;10.07;;
70780;SDS011;59514;48.810;2.134;2023-05-23T07:50:13;11.65;;;8.57;;
70780;SDS011;59514;48.810;2.134;2023-05-23T07:52:38;12.30;;;9.80;;
70780;SDS011;59514;48.810;2.134;2023-05-23T07:55:03;9.25;;;8.35;;
70780;SDS011;59514;48.810;2.134;2023-05-23T07:57:29;10.52;;;8.27;;
70780;SDS011;59514;48.810;2.134;2023-05-23T07:59:55;10.18;;;7.60;;
70780;SDS011;59514;48.810;2.134;2023-05-23T08:02:20;9.55;;;8.55;;
70780;SDS011;59514;48.810;2.134;2023-05-23T08:04:46;8.98;;;7.13;;
70780;SDS011;59514;48.810;2.134;2023-05-23T08:07:12;10.40;;;8.35;;
70780;SDS011;59514;48.810;2.134;2023-05-23T08:09:38;9.18;;;6.50;;
70780;SDS011;59514;48.810;2.134;2023-05-23T08:12:07;8.95;;;7.60;;
70780;SDS011;59514;48.810;2.134;2023-05-23T08:14:33;8.32;;;7.18;;
70780;SDS011;59514;48.810;2.134;2023-05-23T08:16:59;8.88;;;7.30;;
70780;SDS011;59514;48.810;2.134;2023-05-23T08:19:24;7.90;;;6.80;;
70780;SDS011;59514;48.810;2.134;2023-05-23T08:21:49;10.52;;;8.88;;
70780;SDS011;59514;48.810;2.134;2023-05-23T08:24:17;10.95;;;8.88;;
70780;SDS011;59514;48.810;2.134;2023-05-23T08:26:43;8.73;;;7.82;;
70780;SDS011;59514;48.810;2.134;2023-05-23T08:29:08;7.65;;;6.93;;
70780;SDS011;59514;48.810;2.134;2023-05-23T08:31:34;11.85;;;8.55;;
70780;SDS011;59514;48.810;2.134;2023-05-23T08:34:00;10.43;;;8.93;;
70780;SDS011;59514;48.810;2.134;2023-05-23T08:36:25;9.93;;;8.88;;
70780;SDS011;59514;48.810;2.134;2023-05-23T08:38:51;9.73;;;8.65;;
70780;SDS011;59514;48.810;2.134;2023-05-23T08:41:20;11.27;;;8.23;;
70780;SDS011;59514;48.810;2.134;2023-05-23T08:43:47;12.80;;;9.32;;
70780;SDS011;59514;48.810;2.134;2023-05-23T08:46:13;13.15;;;9.60;;
70780;SDS011;59514;48.810;2.134;2023-05-23T08:48:39;10.55;;;9.45;;
70780;SDS011;59514;48.810;2.134;2023-05-23T08:51:06;11.38;;;9.38;;
70780;SDS011;59514;48.810;2.134;2023-05-23T08:53:40;10.85;;;8.88;;
70780;SDS011;59514;48.810;2.134;2023-05-23T08:56:11;11.25;;;8.30;;
70780;SDS011;59514;48.810;2.134;2023-05-23T08:58:36;12.55;;;9.50;;
70780;SDS011;59514;48.810;2.134;2023-05-23T09:01:04;13.30;;;10.43;;
70780;SDS011;59514;48.810;2.134;2023-05-23T09:03:30;13.13;;;9.88;;
70780;SDS011;59514;48.810;2.134;2023-05-23T09:05:55;12.82;;;9.20;;
70780;SDS011;59514;48.810;2.134;2023-05-23T09:08:22;11.18;;;8.98;;
70780;SDS011;59514;48.810;2.134;2023-05-23T09:10:48;12.30;;;9.93;;
70780;SDS011;59514;48.810;2.134;2023-05-23T09:13:15;11.13;;;9.90;;
70780;SDS011;59514;48.810;2.134;2023-05-23T09:18:37;10.43;;;9.32;;
70780;SDS011;59514;48.810;2.134;2023-05-23T09:21:06;14.57;;;10.40;;
70780;SDS011;59514;48.810;2.134;2023-05-23T09:23:34;13.07;;;10.73;;
70780;SDS011;59514;48.810;2.134;2023-05-23T09:26:04;12.45;;;10.88;;
70780;SDS011;59514;48.810;2.134;2023-05-23T09:28:34;15.13;;;11.25;;
70780;SDS011;59514;48.810;2.134;2023-05-23T09:31:02;13.05;;;11.18;;
70780;SDS011;59514;48.810;2.134;2023-05-23T09:33:38;11.88;;;10.60;;
70780;SDS011;59514;48.810;2.134;2023-05-23T09:36:04;14.05;;;9.80;;
70780;SDS011;59514;48.810;2.134;2023-05-23T09:38:31;14.05;;;10.85;;
70780;SDS011;59514;48.810;2.134;2023-05-23T09:40:57;12.93;;;8.95;;
70780;SDS011;59514;48.810;2.134;2023-05-23T09:43:23;12.95;;;9.75;;
70780;SDS011;59514;48.810;2.134;2023-05-23T09:45:49;14.88;;;9.45;;
70780;SDS011;59514;48.810;2.134;2023-05-23T09:48:14;12.00;;;8.73;;
70780;SDS011;59514;48.810;2.134;2023-05-23T09:50:39;12.95;;;9.88;;
70780;SDS011;59514;48.810;2.134;2023-05-23T09:53:05;12.77;;;8.63;;
70780;SDS011;59514;48.810;2.134;2023-05-23T09:55:30;10.95;;;8.70;;
70780;SDS011;59514;48.810;2.134;2023-05-23T09:57:56;11.40;;;9.70;;
70780;SDS011;59514;48.810;2.134;2023-05-23T10:00:23;12.73;;;9.75;;
70780;SDS011;59514;48.810;2.134;2023-05-23T10:08:09;12.18;;;9.90;;
70780;SDS011;59514;48.810;2.134;2023-05-23T10:11:00;12.93;;;9.63;;
70780;SDS011;59514;48.810;2.134;2023-05-23T10:13:55;12.48;;;10.25;;
70780;SDS011;59514;48.810;2.134;2023-05-23T10:21:55;9.70;;;8.70;;
70780;SDS011;59514;48.810;2.134;2023-05-23T10:24:24;12.27;;;9.05;;
70780;SDS011;59514;48.810;2.134;2023-05-23T10:26:50;12.10;;;8.88;;
70780;SDS011;59514;48.810;2.134;2023-05-23T10:29:16;11.00;;;9.20;;
70780;SDS011;59514;48.810;2.134;2023-05-23T10:31:42;12.35;;;9.02;;
70780;SDS011;59514;48.810;2.134;2023-05-23T10:34:28;13.13;;;10.13;;
70780;SDS011;59514;48.810;2.134;2023-05-23T10:42:16;12.30;;;9.30;;
70780;SDS011;59514;48.810;2.134;2023-05-23T10:44:46;11.43;;;8.70;;
70780;SDS011;59514;48.810;2.134;2023-05-23T10:47:11;11.23;;;8.60;;
70780;SDS011;59514;48.810;2.134;2023-05-23T10:49:53;11.07;;;9.80;;
70780;SDS011;59514;48.810;2.134;2023-05-23T10:52:22;11.32;;;9.48;;
70780;SDS011;59514;48.810;2.134;2023-05-23T10:54:51;10.48;;;9.35;;
70780;SDS011;59514;48.810;2.134;2023-05-23T10:57:19;11.75;;;9.70;;
70780;SDS011;59514;48.810;2.134;2023-05-23T10:59:46;11.85;;;9.68;;
70780;SDS011;59514;48.810;2.134;2023-05-23T11:02:15;12.57;;;8.48;;
70780;SDS011;59514;48.810;2.134;2023-05-23T11:04:43;10.52;;;7.63;;
70780;SDS011;59514;48.810;2.134;2023-05-23T11:07:42;9.63;;;8.65;;
70780;SDS011;59514;48.810;2.134;2023-05-23T11:10:07;11.70;;;8.63;;
70780;SDS011;59514;48.810;2.134;2023-05-23T11:12:35;10.10;;;8.55;;
70780;SDS011;59514;48.810;2.134;2023-05-23T11:20:22;9.52;;;8.57;;
70780;SDS011;59514;48.810;2.134;2023-05-23T11:22:58;8.65;;;7.82;;
70780;SDS011;59514;48.810;2.134;2023-05-23T11:25:42;8.77;;;7.70;;
70780;SDS011;59514;48.810;2.134;2023-05-23T11:28:09;10.18;;;8.45;;
70780;SDS011;59514;48.810;2.134;2023-05-23T11:30:36;10.65;;;8.55;;
70780;SDS011;59514;48.810;2.134;2023-05-23T11:33:05;9.02;;;7.82;;
70780;SDS011;59514;48.810;2.134;2023-05-23T11:35:44;10.40;;;8.45;;
70780;SDS011;59514;48.810;2.134;2023-05-23T11:38:12;9.88;;;8.77;;
70780;SDS011;59514;48.810;2.134;2023-05-23T11:40:39;13.18;;;8.48;;
70780;SDS011;59514;48.810;2.134;2023-05-23T11:43:06;9.55;;;8.52;;
70780;SDS011;59514;48.810;2.134;2023-05-23T11:45:33;14.73;;;8.57;;
70780;SDS011;59514;48.810;2.134;2023-05-23T11:48:03;11.98;;;8.75;;
70780;SDS011;59514;48.810;2.134;2023-05-23T11:50:30;10.05;;;8.20;;
70780;SDS011;59514;48.810;2.134;2023-05-23T11:52:55;12.80;;;8.02;;
70780;SDS011;59514;48.810;2.134;2023-05-23T11:55:21;9.40;;;7.65;;
70780;SDS011;59514;48.810;2.134;2023-05-23T11:57:47;9.20;;;7.70;;
70780;SDS011;59514;48.810;2.134;2023-05-23T12:00:14;11.73;;;7.43;;
70780;SDS011;59514;48.810;2.134;2023-05-23T12:02:41;9.93;;;7.40;;
70780;SDS011;59514;48.810;2.134;2023-05-23T12:05:08;8.02;;;7.22;;
70780;SDS011;59514;48.810;2.134;2023-05-23T12:07:44;8.60;;;7.00;;
70780;SDS011;59514;48.810;2.134;2023-05-23T12:10:11;8.05;;;6.65;;
70780;SDS011;59514;48.810;2.134;2023-05-23T12:12:39;10.20;;;7.22;;
70780;SDS011;59514;48.810;2.134;2023-05-23T12:15:05;7.20;;;6.45;;
70780;SDS011;59514;48.810;2.134;2023-05-23T12:17:31;10.80;;;7.30;;
70780;SDS011;59514;48.810;2.134;2023-05-23T12:19:57;9.18;;;6.80;;
70780;SDS011;59514;48.810;2.134;2023-05-23T12:22:22;7.90;;;6.47;;
70780;SDS011;59514;48.810;2.134;2023-05-23T12:24:48;9.00;;;6.72;;
70780;SDS011;59514;48.810;2.134;2023-05-23T12:27:17;8.35;;;5.60;;
70780;SDS011;59514;48.810;2.134;2023-05-23T12:29:48;8.40;;;6.28;;
70780;SDS011;59514;48.810;2.134;2023-05-23T12:32:15;7.50;;;5.72;;
70780;SDS011;59514;48.810;2.134;2023-05-23T12:34:41;7.72;;;5.80;;
70780;SDS011;59514;48.810;2.134;2023-05-23T12:37:07;7.78;;;5.47;;
70780;SDS011;59514;48.810;2.134;2023-05-23T12:39:33;6.50;;;4.88;;
70780;SDS011;59514;48.810;2.134;2023-05-23T12:42:06;8.63;;;5.72;;
70780;SDS011;59514;48.810;2.134;2023-05-23T12:44:33;8.18;;;5.45;;
70780;SDS011;59514;48.810;2.134;2023-05-23T12:46:58;7.53;;;5.25;;
70780;SDS011;59514;48.810;2.134;2023-05-23T12:49:23;12.15;;;5.50;;
70780;SDS011;59514;48.810;2.134;2023-05-23T12:51:49;7.38;;;5.28;;
70780;SDS011;59514;48.810;2.134;2023-05-23T12:54:14;7.70;;;5.35;;
70780;SDS011;59514;48.810;2.134;2023-05-23T12:56:40;7.63;;;4.75;;
70780;SDS011;59514;48.810;2.134;2023-05-23T12:59:05;5.90;;;5.05;;
70780;SDS011;59514;48.810;2.134;2023-05-23T13:01:30;8.15;;;4.63;;
70780;SDS011;59514;48.810;2.134;2023-05-23T13:03:58;6.43;;;4.47;;
70780;SDS011;59514;48.810;2.134;2023-05-23T13:06:23;6.57;;;4.20;;
70780;SDS011;59514;48.810;2.134;2023-05-23T13:08:49;5.43;;;4.13;;
70780;SDS011;59514;48.810;2.134;2023-05-23T13:11:15;8.02;;;4.40;;
70780;SDS011;59514;48.810;2.134;2023-05-23T13:13:41;5.15;;;4.18;;
70780;SDS011;59514;48.810;2.134;2023-05-23T13:16:06;5.57;;;4.10;;
70780;SDS011;59514;48.810;2.134;2023-05-23T13:18:33;10.02;;;5.68;;
70780;SDS011;59514;48.810;2.134;2023-05-23T13:20:58;6.13;;;4.60;;
70780;SDS011;59514;48.810;2.134;2023-05-23T13:23:24;5.10;;;3.85;;
70780;SDS011;59514;48.810;2.134;2023-05-23T13:25:50;6.25;;;4.03;;
70780;SDS011;59514;48.810;2.134;2023-05-23T13:28:17;5.03;;;3.92;;
70780;SDS011;59514;48.810;2.134;2023-05-23T13:30:42;6.43;;;4.07;;
70780;SDS011;59514;48.810;2.134;2023-05-23T13:33:07;8.70;;;4.10;;
70780;SDS011;59514;48.810;2.134;2023-05-23T13:35:33;6.15;;;3.55;;
70780;SDS011;59514;48.810;2.134;2023-05-23T13:37:58;5.65;;;4.05;;
70780;SDS011;59514;48.810;2.134;2023-05-23T13:40:23;5.72;;;3.05;;
70780;SDS011;59514;48.810;2.134;2023-05-23T13:42:49;4.38;;;3.33;;
70780;SDS011;59514;48.810;2.134;2023-05-23T13:45:15;6.70;;;3.55;;
70780;SDS011;59514;48.810;2.134;2023-05-23T13:47:41;4.45;;;3.50;;
70780;SDS011;59514;48.810;2.134;2023-05-23T13:50:07;8.52;;;3.60;;
70780;SDS011;59514;48.810;2.134;2023-05-23T13:52:33;8.68;;;3.85;;
70780;SDS011;59514;48.810;2.134;2023-05-23T13:54:58;7.07;;;3.87;;
70780;SDS011;59514;48.810;2.134;2023-05-23T13:57:25;7.18;;;4.18;;
70780;SDS011;59514;48.810;2.134;2023-05-23T13:59:51;6.97;;;4.55;;
70780;SDS011;59514;48.810;2.134;2023-05-23T14:02:16;7.32;;;4.10;;
70780;SDS011;59514;48.810;2.134;2023-05-23T14:04:42;4.28;;;3.25;;
70780;SDS011;59514;48.810;2.134;2023-05-23T14:07:07;4.85;;;3.45;;
70780;SDS011;59514;48.810;2.134;2023-05-23T14:09:32;5.30;;;4.03;;
70780;SDS011;59514;48.810;2.134;2023-05-23T14:11:57;7.03;;;4.10;;
70780;SDS011;59514;48.810;2.134;2023-05-23T14:14:23;6.27;;;3.87;;
70780;SDS011;59514;48.810;2.134;2023-05-23T14:16:49;4.93;;;3.60;;
70780;SDS011;59514;48.810;2.134;2023-05-23T14:19:14;7.13;;;4.10;;
70780;SDS011;59514;48.810;2.134;2023-05-23T14:21:40;6.63;;;3.73;;
70780;SDS011;59514;48.810;2.134;2023-05-23T14:24:05;8.05;;;4.20;;
70780;SDS011;59514;48.810;2.134;2023-05-23T14:26:31;6.38;;;4.22;;
70780;SDS011;59514;48.810;2.134;2023-05-23T14:28:56;7.85;;;4.28;;
70780;SDS011;59514;48.810;2.134;2023-05-23T14:31:21;6.93;;;4.13;;
70780;SDS011;59514;48.810;2.134;2023-05-23T14:33:47;5.70;;;4.20;;
70780;SDS011;59514;48.810;2.134;2023-05-23T14:36:13;8.60;;;4.30;;
70780;SDS011;59514;48.810;2.134;2023-05-23T14:38:39;8.32;;;4.70;;
70780;SDS011;59514;48.810;2.134;2023-05-23T14:41:04;7.22;;;4.40;;
70780;SDS011;59514;48.810;2.134;2023-05-23T14:43:30;5.18;;;4.15;;
70780;SDS011;59514;48.810;2.134;2023-05-23T14:45:55;5.82;;;3.67;;
70780;SDS011;59514;48.810;2.134;2023-05-23T14:48:21;5.18;;;4.05;;
70780;SDS011;59514;48.810;2.134;2023-05-23T14:50:46;7.10;;;4.63;;
70780;SDS011;59514;48.810;2.134;2023-05-23T14:53:11;7.03;;;4.40;;
70780;SDS011;59514;48.810;2.134;2023-05-23T14:55:37;6.10;;;3.92;;
70780;SDS011;59514;48.810;2.134;2023-05-23T14:58:02;5.38;;;4.20;;
70780;SDS011;59514;48.810;2.134;2023-05-23T15:00:29;6.32;;;4.05;;
70780;SDS011;59514;48.810;2.134;2023-05-23T15:02:55;4.22;;;3.35;;
70780;SDS011;59514;48.810;2.134;2023-05-23T15:05:20;7.13;;;4.20;;
70780;SDS011;59514;48.810;2.134;2023-05-23T15:07:46;5.47;;;3.83;;